Time;durP1;ratioP1;P1;durP2;ratioP2;P2;SDS_P1;SDS_P2;PMS_P1;PMS_P2;Temp;Humidity;BMP_temperature;BMP_pressure;BME280_temperature;BME280_humidity;BME280_pressure;Samples;Min_cycle;Max_cycle;Signal;HPM_P1;HPM_P2
2022/08/08 00:00:12;;;;;;;6.50;4.18;;;16.90;99.90;;;;;;5019945;28;20052;-59
2022/08/08 00:02:38;;;;;;;9.68;4.80;;;16.90;99.90;;;;;;5032055;28;20095;-59
2022/08/08 00:05:18;;;;;;;8.23;4.97;;;17.00;99.90;;;;;;5030562;28;20071;-59
2022/08/08 00:07:56;;;;;;;6.25;4.30;;;16.90;99.90;;;;;;5044986;28;20048;-59
2022/08/08 00:10:31;;;;;;;7.90;4.28;;;17.00;99.90;;;;;;5031866;28;20056;-59
2022/08/08 00:13:07;;;;;;;8.73;4.80;;;16.90;99.90;;;;;;5045802;28;20374;-59
2022/08/08 00:15:39;;;;;;;7.55;4.63;;;16.90;99.90;;;;;;5030427;28;20498;-59
2022/08/08 00:18:27;;;;;;;6.07;4.15;;;16.90;99.90;;;;;;5031741;28;20164;-59
2022/08/08 00:20:56;;;;;;;7.38;4.82;;;16.90;99.90;;;;;;5031389;28;20347;-59
2022/08/08 00:23:32;;;;;;;6.90;4.18;;;16.80;99.90;;;;;;5031202;28;20034;-59
2022/08/08 00:26:01;;;;;;;9.02;5.45;;;16.80;99.90;;;;;;5031305;28;20048;-59
2022/08/08 00:28:40;;;;;;;7.68;4.80;;;16.80;99.90;;;;;;5045444;28;20033;-59
2022/08/08 00:31:15;;;;;;;8.88;4.68;;;16.70;99.90;;;;;;5019338;28;20059;-59
2022/08/08 00:33:50;;;;;;;10.27;5.28;;;16.60;99.90;;;;;;5042913;28;20041;-59
2022/08/08 00:36:29;;;;;;;9.18;4.88;;;16.60;99.90;;;;;;5030784;28;20481;-59
2022/08/08 00:39:10;;;;;;;9.90;5.57;;;16.50;99.90;;;;;;5045223;28;20048;-60
2022/08/08 00:42:08;;;;;;;12.25;5.32;;;16.50;99.90;;;;;;5023620;28;20074;-60
2022/08/08 00:45:24;;;;;;;7.78;4.97;;;16.40;99.90;;;;;;5029238;28;20393;-59
2022/08/08 00:48:40;;;;;;;8.70;4.97;;;16.40;99.90;;;;;;4976183;28;20099;-59
2022/08/08 00:51:43;;;;;;;7.22;4.97;;;16.40;99.90;;;;;;4972139;28;20334;-59
2022/08/08 00:54:36;;;;;;;6.90;4.80;;;16.40;99.90;;;;;;5050129;28;20434;-60
2022/08/08 00:57:26;;;;;;;7.20;4.70;;;16.30;99.90;;;;;;5037346;28;20048;-59
2022/08/08 01:00:13;;;;;;;7.68;4.57;;;16.30;99.90;;;;;;5030171;28;20044;-60
2022/08/08 01:03:12;;;;;;;7.75;4.32;;;16.30;99.90;;;;;;5042581;28;20095;-59
2022/08/08 01:05:52;;;;;;;6.35;4.80;;;16.30;99.90;;;;;;5019319;28;20048;-59
2022/08/08 01:08:51;;;;;;;6.78;4.80;;;16.30;99.90;;;;;;5024116;28;20029;-59
2022/08/08 01:11:41;;;;;;;7.60;5.28;;;16.30;99.90;;;;;;5037962;28;20132;-59
2022/08/08 01:14:16;;;;;;;9.07;5.45;;;16.30;99.90;;;;;;5036854;28;20038;-59
2022/08/08 01:17:19;;;;;;;7.45;4.63;;;16.30;99.90;;;;;;5041799;28;20402;-59
2022/08/08 01:20:18;;;;;;;8.45;5.20;;;16.20;99.90;;;;;;5054883;28;20049;-60
2022/08/08 01:23:21;;;;;;;7.53;5.13;;;16.20;99.90;;;;;;5037566;28;20388;-59
2022/08/08 01:25:58;;;;;;;7.88;4.78;;;16.10;99.90;;;;;;5036646;28;20029;-59
2022/08/08 01:28:53;;;;;;;7.03;4.82;;;16.10;99.90;;;;;;5037661;28;20103;-60
2022/08/08 01:31:55;;;;;;;6.50;4.82;;;16.10;99.90;;;;;;5035975;28;20508;-59
2022/08/08 01:34:46;;;;;;;9.75;5.25;;;16.10;99.90;;;;;;5024964;28;20033;-60
2022/08/08 01:37:39;;;;;;;7.22;4.35;;;16.10;99.90;;;;;;5036858;28;20393;-59
2022/08/08 01:40:32;;;;;;;7.68;4.82;;;16.00;99.90;;;;;;5037183;28;20533;-59
2022/08/08 01:43:19;;;;;;;6.78;4.20;;;16.00;99.90;;;;;;5025040;28;20410;-59
2022/08/08 01:45:54;;;;;;;8.00;4.75;;;16.00;99.90;;;;;;5038292;28;20091;-59
2022/08/08 01:48:34;;;;;;;7.40;4.38;;;16.00;99.90;;;;;;5047714;28;20033;-59
2022/08/08 01:51:24;;;;;;;5.80;4.35;;;16.00;99.90;;;;;;5037145;28;20048;-59
2022/08/08 01:54:21;;;;;;;6.72;4.22;;;16.00;99.90;;;;;;5033899;28;20059;-59
2022/08/08 01:56:53;;;;;;;6.82;4.43;;;16.00;99.90;;;;;;5025591;28;20045;-59
2022/08/08 01:59:37;;;;;;;7.65;4.45;;;16.00;99.90;;;;;;5033306;28;20042;-59
2022/08/08 02:02:32;;;;;;;7.38;4.68;;;16.00;99.90;;;;;;5033786;28;20072;-59
2022/08/08 02:05:21;;;;;;;5.88;4.05;;;16.00;99.90;;;;;;5025630;28;20116;-59
2022/08/08 02:07:49;;;;;;;7.97;4.90;;;16.00;99.90;;;;;;5033738;28;20033;-59
2022/08/08 02:10:59;;;;;;;8.05;4.22;;;16.00;99.90;;;;;;5033667;28;20373;-59
2022/08/08 02:13:49;;;;;;;6.32;4.47;;;16.00;99.90;;;;;;5030174;28;20060;-61
2022/08/08 02:16:42;;;;;;;9.52;4.70;;;16.00;99.90;;;;;;5029491;28;20068;-59
2022/08/08 02:19:21;;;;;;;20.70;5.20;;;15.90;99.90;;;;;;5042093;28;20045;-60
2022/08/08 02:25:16;;;;;;;8.93;4.75;;;15.90;99.90;;;;;;5032991;28;20064;-60
2022/08/08 02:27:53;;;;;;;9.55;4.82;;;15.90;99.90;;;;;;5028374;28;20044;-59
2022/08/08 02:30:22;;;;;;;11.90;5.72;;;15.90;99.90;;;;;;5020394;28;20046;-59
2022/08/08 02:33:25;;;;;;;6.85;4.85;;;15.90;99.90;;;;;;5032975;28;20374;-59
2022/08/08 02:36:16;;;;;;;7.03;4.35;;;15.90;99.90;;;;;;5031960;28;20046;-59
2022/08/08 02:38:56;;;;;;;7.75;4.82;;;15.80;99.90;;;;;;5033634;28;20062;-59
2022/08/08 02:41:25;;;;;;;8.20;4.13;;;15.80;99.90;;;;;;5045084;28;20041;-60
2022/08/08 02:44:09;;;;;;;7.70;4.50;;;15.80;99.90;;;;;;5032508;28;20041;-59
2022/08/08 02:46:41;;;;;;;;;;;15.80;99.90;;;;;;5033310;28;20073;-60
2022/08/08 02:49:27;;;;;;;5.88;4.35;;;15.80;99.90;;;;;;5032805;28;20400;-60
2022/08/08 02:52:01;;;;;;;8.50;4.40;;;15.80;99.90;;;;;;5033155;28;20038;-60
2022/08/08 02:55:16;;;;;;;5.63;3.83;;;15.80;99.90;;;;;;5032326;28;20061;-59
2022/08/08 02:58:18;;;;;;;7.30;4.63;;;15.70;99.90;;;;;;5015793;28;20063;-59
2022/08/08 03:00:44;;;;;;;6.80;4.25;;;15.70;99.90;;;;;;5046677;28;20044;-59
2022/08/08 03:03:43;;;;;;;7.30;4.93;;;15.70;99.90;;;;;;5051899;28;20041;-59
2022/08/08 03:06:26;;;;;;;8.65;5.00;;;15.70;99.90;;;;;;5028626;28;20515;-60
2022/08/08 03:09:28;;;;;;;5.57;4.20;;;15.60;99.90;;;;;;5032700;28;20038;-59
2022/08/08 03:12:15;;;;;;;7.53;4.80;;;15.60;99.90;;;;;;5020727;28;20045;-60
2022/08/08 03:15:05;;;;;;;7.25;4.88;;;15.50;99.90;;;;;;5031616;28;20037;-59
2022/08/08 03:17:52;;;;;;;7.03;4.72;;;15.50;99.90;;;;;;5032515;28;20081;-59
2022/08/08 03:20:18;;;;;;;6.55;4.85;;;15.50;99.90;;;;;;5025950;28;20049;-59
2022/08/08 03:22:49;;;;;;;6.47;4.30;;;15.50;99.90;;;;;;5039769;28;20053;-59
2022/08/08 03:25:17;;;;;;;5.72;4.00;;;15.50;99.90;;;;;;5032118;28;20049;-59
2022/08/08 03:27:55;;;;;;;8.00;4.20;;;15.50;99.90;;;;;;5032670;28;20064;-60
2022/08/08 03:30:21;;;;;;;6.78;4.45;;;15.50;99.90;;;;;;5032570;28;20071;-59
2022/08/08 03:35:37;;;;;;;6.85;4.47;;;15.40;99.90;;;;;;5034481;28;20045;-59
2022/08/08 03:38:03;;;;;;;6.75;4.10;;;15.40;99.90;;;;;;5041123;28;20106;-60
2022/08/08 03:40:29;;;;;;;5.82;4.45;;;15.40;99.90;;;;;;5036943;28;20037;-59
2022/08/08 03:42:55;;;;;;;7.07;4.78;;;15.40;99.90;;;;;;5031862;28;20498;-59
2022/08/08 03:45:25;;;;;;;7.57;5.40;;;15.40;99.90;;;;;;5030947;28;20049;-59
2022/08/08 03:48:07;;;;;;;6.85;4.32;;;15.30;99.90;;;;;;5031627;28;20435;-59
2022/08/08 03:50:34;;;;;;;6.65;3.80;;;15.30;99.90;;;;;;5028449;28;20128;-59
2022/08/08 03:53:11;;;;;;;5.22;3.72;;;15.30;99.90;;;;;;5018256;28;20041;-60
2022/08/08 03:55:38;;;;;;;11.73;4.50;;;15.30;99.90;;;;;;5031003;28;20112;-59
2022/08/08 03:58:04;;;;;;;7.72;3.97;;;15.30;99.90;;;;;;5037282;28;20412;-59
2022/08/08 04:00:30;;;;;;;5.07;3.60;;;15.30;99.90;;;;;;5040137;28;20037;-59
2022/08/08 04:03:05;;;;;;;7.93;4.25;;;15.30;99.90;;;;;;5031579;28;20033;-59
2022/08/08 04:05:34;;;;;;;5.90;3.60;;;15.30;99.90;;;;;;5030631;28;20037;-59
2022/08/08 04:08:01;;;;;;;6.80;4.30;;;15.30;99.90;;;;;;5049046;28;20041;-59
2022/08/08 04:10:27;;;;;;;5.53;4.00;;;15.20;99.90;;;;;;5042365;28;20120;-59
2022/08/08 04:12:54;;;;;;;7.85;4.30;;;15.20;99.90;;;;;;5031646;28;20089;-59
2022/08/08 04:15:20;;;;;;;7.20;4.07;;;15.20;99.90;;;;;;5030354;28;20107;-59
2022/08/08 04:17:49;;;;;;;4.82;3.88;;;15.20;99.90;;;;;;5031135;28;20137;-59
2022/08/08 04:20:15;;;;;;;7.30;3.75;;;15.20;99.90;;;;;;5029955;28;20402;-60
2022/08/08 04:22:41;;;;;;;7.40;4.80;;;15.20;99.90;;;;;;5013759;28;20072;-60
2022/08/08 04:25:07;;;;;;;5.80;4.00;;;15.30;99.90;;;;;;5035406;28;20037;-59
2022/08/08 04:27:34;;;;;;;5.90;3.88;;;15.30;99.90;;;;;;5031321;28;20064;-60
2022/08/08 04:30:01;;;;;;;7.68;4.10;;;15.30;99.90;;;;;;5031495;28;20106;-60
2022/08/08 04:32:26;;;;;;;8.82;3.95;;;15.30;99.90;;;;;;5031013;28;20037;-60
2022/08/08 04:34:52;;;;;;;8.10;4.68;;;15.20;99.90;;;;;;5020939;28;20049;-60
2022/08/08 04:37:18;;;;;;;7.15;4.50;;;15.30;99.90;;;;;;5027698;28;20029;-60
2022/08/08 04:39:43;;;;;;;6.40;4.57;;;15.30;99.90;;;;;;5031341;28;20474;-60
2022/08/08 04:42:09;;;;;;;5.25;4.18;;;15.30;99.90;;;;;;5031196;28;20124;-59
2022/08/08 04:44:35;;;;;;;6.90;4.25;;;15.40;99.90;;;;;;5029983;28;20040;-60
2022/08/08 04:47:01;;;;;;;7.22;4.50;;;15.40;99.90;;;;;;5031111;28;20061;-60
2022/08/08 04:49:27;;;;;;;6.78;3.65;;;15.60;99.90;;;;;;5035757;28;20048;-60
2022/08/08 04:51:52;;;;;;;6.05;4.43;;;15.80;99.90;;;;;;5040296;28;20045;-60
2022/08/08 04:54:18;;;;;;;5.95;4.03;;;15.80;99.90;;;;;;5029920;28;20481;-60
2022/08/08 04:56:43;;;;;;;6.97;4.28;;;16.10;99.90;;;;;;5030854;28;20040;-60
2022/08/08 04:59:09;;;;;;;6.13;3.83;;;16.40;99.90;;;;;;5031200;28;20052;-60
2022/08/08 05:01:35;;;;;;;6.63;3.97;;;16.80;99.90;;;;;;5031090;28;20045;-60
2022/08/08 05:04:01;;;;;;;6.30;3.80;;;17.10;99.90;;;;;;5030305;28;20034;-60
2022/08/08 05:06:26;;;;;;;5.78;3.95;;;17.30;99.90;;;;;;5013260;28;20037;-60
2022/08/08 05:08:52;;;;;;;7.82;4.68;;;17.70;99.90;;;;;;5030927;28;20041;-60
2022/08/08 05:11:19;;;;;;;4.75;3.58;;;18.30;99.90;;;;;;5031152;28;20034;-60
2022/08/08 05:13:44;;;;;;;6.45;3.80;;;19.00;99.90;;;;;;5029279;28;20037;-58
2022/08/08 05:16:10;;;;;;;7.55;3.40;;;19.70;99.90;;;;;;5030142;28;20219;-58
2022/08/08 05:18:36;;;;;;;5.88;3.25;;;20.20;99.90;;;;;;5031217;28;20084;-58
2022/08/08 05:21:07;;;;;;;7.20;3.13;;;20.80;99.90;;;;;;5030878;28;20508;-57
2022/08/08 05:23:33;;;;;;;7.32;3.20;;;21.50;99.90;;;;;;5014222;28;20377;-59
2022/08/08 05:25:59;;;;;;;8.25;3.25;;;21.90;99.90;;;;;;5037470;28;20120;-59
2022/08/08 05:28:25;;;;;;;7.05;3.00;;;22.10;99.90;;;;;;5037566;28;20037;-59
2022/08/08 05:30:51;;;;;;;9.80;3.63;;;22.50;99.90;;;;;;5030996;28;20171;-59
2022/08/08 05:33:17;;;;;;;6.43;3.40;;;22.90;99.90;;;;;;5033656;28;20136;-58
2022/08/08 05:35:43;;;;;;;6.13;3.65;;;23.10;99.90;;;;;;5033393;28;20041;-58
2022/08/08 05:38:13;;;;;;;5.25;3.10;;;23.30;99.90;;;;;;5034697;28;20101;-59
2022/08/08 05:40:45;;;;;;;7.80;3.28;;;23.50;99.90;;;;;;5034125;28;20367;-59
2022/08/08 05:43:23;;;;;;;7.47;2.90;;;23.50;99.90;;;;;;5034436;28;20447;-59
2022/08/08 05:45:49;;;;;;;8.13;3.17;;;23.90;99.90;;;;;;5033089;28;20037;-59
2022/08/08 05:48:16;;;;;;;6.07;2.80;;;24.30;99.90;;;;;;5034475;28;20038;-59
2022/08/08 05:50:42;;;;;;;4.13;2.38;;;24.60;99.90;;;;;;5035407;28;20060;-59
2022/08/08 05:53:08;;;;;;;5.25;2.63;;;24.50;99.90;;;;;;5054401;28;20040;-59
2022/08/08 05:55:35;;;;;;;6.75;2.65;;;24.20;99.90;;;;;;5036496;28;20033;-61
2022/08/08 05:58:02;;;;;;;6.43;2.88;;;24.10;99.90;;;;;;5032608;28;20466;-59
2022/08/08 06:00:31;;;;;;;7.85;3.00;;;24.50;99.90;;;;;;5034020;28;20121;-59
2022/08/08 06:03:12;;;;;;;8.23;3.17;;;24.80;99.70;;;;;;5033624;28;20464;-59
2022/08/08 06:05:58;;;;;;;6.18;3.20;;;24.90;99.30;;;;;;5027122;28;20033;-59
2022/08/08 06:08:35;;;;;;;8.20;2.97;;;25.20;98.50;;;;;;5047048;28;20043;-59
2022/08/08 06:11:03;;;;;;;8.50;3.50;;;25.60;98.90;;;;;;5033898;28;20045;-59
2022/08/08 06:13:28;;;;;;;7.90;2.72;;;25.80;98.60;;;;;;5033905;28;20049;-59
2022/08/08 06:15:56;;;;;;;6.80;2.55;;;25.70;98.30;;;;;;5032237;28;20041;-59
2022/08/08 06:18:25;;;;;;;7.30;3.10;;;25.40;98.20;;;;;;5033574;28;20037;-59
2022/08/08 06:20:57;;;;;;;8.43;2.75;;;25.40;98.30;;;;;;5044816;28;20049;-59
2022/08/08 06:23:23;;;;;;;6.03;2.05;;;25.50;98.30;;;;;;5035556;28;20335;-59
2022/08/08 06:26:03;;;;;;;5.05;2.60;;;25.40;98.20;;;;;;5038492;28;20025;-59
2022/08/08 06:28:33;;;;;;;8.57;2.60;;;25.50;97.30;;;;;;5039513;28;20121;-59
2022/08/08 06:31:02;;;;;;;5.55;3.17;;;25.50;98.20;;;;;;4993221;28;20091;-59
2022/08/08 06:33:57;;;;;;;6.07;2.40;;;25.60;97.90;;;;;;5040594;28;20077;-60
2022/08/08 06:36:38;;;;;;;7.78;3.60;;;25.90;97.60;;;;;;5013364;28;20057;-59
2022/08/08 06:39:05;;;;;;;7.18;3.47;;;25.50;97.40;;;;;;5036488;28;20492;-59
2022/08/08 06:41:44;;;;;;;7.63;3.13;;;25.40;97.80;;;;;;5043992;28;20037;-59
2022/08/08 06:44:10;;;;;;;6.28;2.60;;;25.90;97.70;;;;;;5044982;28;20271;-59
2022/08/08 06:46:37;;;;;;;4.28;2.10;;;25.90;97.50;;;;;;5042074;28;20175;-59
2022/08/08 06:49:03;;;;;;;6.18;1.90;;;25.70;97.10;;;;;;5038792;28;20390;-61
2022/08/08 06:51:34;;;;;;;6.28;2.20;;;25.60;97.10;;;;;;5027979;28;20073;-58
2022/08/08 06:54:01;;;;;;;7.95;2.47;;;25.50;97.30;;;;;;5031924;28;20045;-59
2022/08/08 06:56:29;;;;;;;6.78;2.22;;;25.40;97.50;;;;;;5019050;28;20025;-59
2022/08/08 06:58:55;;;;;;;6.80;2.10;;;25.20;97.80;;;;;;5045457;28;20045;-58
2022/08/08 07:01:24;;;;;;;9.27;2.47;;;25.40;97.80;;;;;;5038800;28;20058;-59
2022/08/08 07:03:57;;;;;;;4.78;2.40;;;25.30;97.60;;;;;;5050835;28;20041;-60
2022/08/08 07:06:26;;;;;;;4.10;2.17;;;25.00;98.00;;;;;;5032346;28;20049;-60
2022/08/08 07:08:57;;;;;;;5.35;2.25;;;25.00;98.30;;;;;;5032839;28;20370;-60
2022/08/08 07:11:28;;;;;;;6.35;2.13;;;25.20;98.30;;;;;;5032841;28;20362;-60
2022/08/08 07:13:59;;;;;;;4.57;2.20;;;25.30;98.20;;;;;;5031994;28;20037;-59
2022/08/08 07:17:03;;;;;;;6.45;2.60;;;25.50;98.20;;;;;;5031830;28;20072;-60
2022/08/08 07:19:59;;;;;;;5.43;2.20;;;25.40;98.20;;;;;;5009337;28;20053;-59
2022/08/08 07:22:48;;;;;;;3.33;1.98;;;25.20;97.50;;;;;;5021020;28;20502;-59
2022/08/08 07:25:14;;;;;;;4.10;1.98;;;25.10;98.30;;;;;;5033846;28;20410;-59
2022/08/08 07:27:46;;;;;;;5.10;1.98;;;25.20;98.20;;;;;;5032705;28;20116;-60
2022/08/08 07:30:12;;;;;;;6.57;1.88;;;25.00;98.40;;;;;;5032545;28;20120;-60
2022/08/08 07:32:39;;;;;;;5.85;1.70;;;25.10;98.30;;;;;;5053006;28;20033;-59
2022/08/08 07:35:06;;;;;;;5.18;1.55;;;24.80;98.50;;;;;;5021028;28;20450;-60
2022/08/08 07:37:33;;;;;;;4.05;1.65;;;24.40;99.10;;;;;;5036600;28;20110;-59
2022/08/08 07:40:00;;;;;;;5.15;1.67;;;24.00;99.40;;;;;;5034388;28;20045;-59
2022/08/08 07:42:31;;;;;;;6.75;1.95;;;23.90;99.70;;;;;;5049351;28;20045;-59
2022/08/08 07:44:56;;;;;;;4.05;1.98;;;23.80;99.90;;;;;;5031762;28;20393;-58
2022/08/08 07:47:22;;;;;;;4.63;1.60;;;23.70;99.90;;;;;;5015814;28;20037;-59
2022/08/08 07:49:48;;;;;;;3.78;1.90;;;23.40;99.90;;;;;;5044693;28;20524;-59
2022/08/08 07:52:14;;;;;;;5.45;2.10;;;23.60;99.90;;;;;;5045192;28;20041;-59
2022/08/08 07:54:52;;;;;;;4.18;1.60;;;23.50;99.90;;;;;;5031003;28;20036;-59
2022/08/08 07:57:38;;;;;;;4.03;1.55;;;23.70;99.90;;;;;;5044621;28;20110;-59
2022/08/08 08:00:10;;;;;;;5.70;1.50;;;23.80;99.90;;;;;;5019880;28;20426;-61
2022/08/08 08:03:11;;;;;;;2.90;1.67;;;23.80;99.90;;;;;;5046720;28;20029;-60
2022/08/08 08:05:41;;;;;;;6.65;1.70;;;23.70;99.90;;;;;;5029882;28;20484;-60
2022/08/08 08:08:19;;;;;;;4.85;1.60;;;23.70;99.90;;;;;;5038063;28;20048;-60
2022/08/08 08:10:50;;;;;;;3.50;1.38;;;23.60;99.90;;;;;;5039851;28;20041;-57
2022/08/08 08:13:44;;;;;;;6.00;1.50;;;23.50;99.90;;;;;;5031661;28;20037;-60
2022/08/08 08:16:17;;;;;;;4.72;1.45;;;23.40;99.90;;;;;;5020919;28;20364;-58
2022/08/08 08:18:46;;;;;;;6.28;1.60;;;23.20;99.90;;;;;;5051437;28;20500;-59
2022/08/08 08:21:14;;;;;;;6.45;1.45;;;23.10;99.90;;;;;;5037742;28;20084;-58
2022/08/08 08:23:39;;;;;;;4.28;1.45;;;23.00;99.90;;;;;;5033378;28;20461;-60
2022/08/08 08:26:05;;;;;;;5.95;1.67;;;23.00;99.90;;;;;;5031135;28;20061;-59
2022/08/08 08:28:31;;;;;;;4.07;1.38;;;22.90;99.90;;;;;;5031661;28;20366;-59
2022/08/08 08:31:01;;;;;;;6.00;1.35;;;22.90;99.90;;;;;;5045138;28;20261;-59
2022/08/08 08:33:27;;;;;;;3.97;1.63;;;22.90;99.90;;;;;;5031551;28;20124;-59
2022/08/08 08:35:52;;;;;;;3.63;1.33;;;22.50;99.90;;;;;;5017426;28;20521;-59
2022/08/08 08:38:18;;;;;;;3.60;1.33;;;22.50;99.90;;;;;;5040414;28;20502;-59
2022/08/08 08:40:44;;;;;;;5.18;1.38;;;22.40;99.90;;;;;;5045317;28;20041;-59
2022/08/08 08:43:11;;;;;;;3.17;1.27;;;22.30;99.90;;;;;;5040144;28;20512;-59
2022/08/08 08:45:37;;;;;;;4.00;1.20;;;22.20;99.90;;;;;;5006023;28;20466;-59
2022/08/08 08:48:03;;;;;;;4.88;1.67;;;22.30;99.90;;;;;;5051333;28;20040;-60
2022/08/08 08:50:30;;;;;;;3.47;1.30;;;22.40;99.90;;;;;;5017070;28;20052;-59
2022/08/08 08:52:58;;;;;;;6.13;1.27;;;22.70;99.90;;;;;;5045637;28;20045;-59
2022/08/08 08:55:25;;;;;;;3.45;1.40;;;22.90;99.90;;;;;;5029845;28;20095;-59
2022/08/08 08:57:53;;;;;;;5.05;1.50;;;22.80;99.90;;;;;;5045176;28;20068;-59
2022/08/08 09:00:19;;;;;;;3.17;1.10;;;22.60;99.90;;;;;;5031183;28;20077;-59
2022/08/08 09:02:47;;;;;;;3.35;1.25;;;22.50;99.90;;;;;;5031163;28;20065;-58
2022/08/08 09:05:14;;;;;;;3.42;1.20;;;22.50;99.90;;;;;;5029691;28;20466;-59
2022/08/08 09:07:41;;;;;;;2.75;1.00;;;22.70;99.60;;;;;;5033274;28;20526;-59
2022/08/08 09:10:08;;;;;;;2.33;1.00;;;22.80;99.30;;;;;;5055219;28;20185;-59
2022/08/08 09:12:34;;;;;;;2.90;1.33;;;22.90;99.20;;;;;;5054811;28;20458;-59
2022/08/08 09:15:00;;;;;;;4.70;1.10;;;23.10;99.10;;;;;;5034573;28;20030;-59
2022/08/08 09:17:27;;;;;;;3.97;1.30;;;23.20;99.20;;;;;;5045438;28;20060;-59
2022/08/08 09:19:57;;;;;;;3.45;1.10;;;23.40;99.20;;;;;;5051716;28;20056;-59
2022/08/08 09:22:24;;;;;;;1.67;1.00;;;23.50;99.40;;;;;;5044464;28;20053;-61
2022/08/08 09:24:51;;;;;;;3.60;1.30;;;23.50;98.70;;;;;;5045238;28;20036;-59
2022/08/08 09:27:19;;;;;;;2.70;0.98;;;23.60;98.60;;;;;;5038397;28;20477;-58
2022/08/08 09:29:52;;;;;;;2.90;1.10;;;23.80;98.20;;;;;;5044682;28;20038;-58
2022/08/08 09:32:37;;;;;;;2.10;1.05;;;23.90;98.00;;;;;;5051591;28;20033;-58
2022/08/08 09:35:07;;;;;;;3.70;1.40;;;23.80;98.40;;;;;;5041162;28;20378;-58
2022/08/08 09:37:43;;;;;;;2.65;1.10;;;23.80;98.20;;;;;;5048349;28;20041;-58
2022/08/08 09:40:11;;;;;;;2.58;1.10;;;23.60;98.10;;;;;;5046486;28;20037;-58
2022/08/08 09:42:39;;;;;;;2.55;1.10;;;23.70;98.70;;;;;;5035974;28;20451;-58
2022/08/08 09:45:23;;;;;;;1.92;1.17;;;23.90;97.90;;;;;;5015816;28;20134;-59
2022/08/08 09:47:49;;;;;;;;;;;24.10;97.30;;;;;;5039927;28;20090;-58
2022/08/08 09:50:18;;;;;;;2.92;0.90;;;24.20;96.50;;;;;;5054063;28;19917;-58
2022/08/08 09:52:49;;;;;;;2.35;1.30;;;24.20;96.60;;;;;;5050497;28;20048;-58
2022/08/08 09:55:15;;;;;;;3.00;1.13;;;24.40;97.10;;;;;;5042977;28;20094;-58
2022/08/08 09:57:43;;;;;;;3.45;1.20;;;24.30;98.10;;;;;;5054212;28;20041;-58
2022/08/08 10:00:11;;;;;;;3.78;1.35;;;24.00;98.60;;;;;;5054203;28;20078;-58
2022/08/08 10:02:40;;;;;;;3.13;1.35;;;23.70;99.10;;;;;;5022536;28;20340;-58
2022/08/08 10:05:13;;;;;;;4.30;1.25;;;23.50;99.40;;;;;;5042569;28;20366;-58
2022/08/08 10:07:51;;;;;;;3.03;1.20;;;23.30;99.30;;;;;;5016569;28;20064;-58
2022/08/08 10:10:31;;;;;;;5.28;1.30;;;23.00;99.10;;;;;;5033779;28;20049;-58
2022/08/08 10:12:58;;;;;;;2.25;1.15;;;22.90;99.40;;;;;;5048372;28;20037;-58
2022/08/08 10:15:36;;;;;;;2.90;1.58;;;22.90;99.50;;;;;;5032626;28;20045;-58
2022/08/08 10:18:02;;;;;;;3.35;1.40;;;23.20;99.30;;;;;;5046873;28;20132;-58
2022/08/08 10:20:44;;;;;;;3.55;1.20;;;23.40;99.00;;;;;;5040975;28;20080;-59
2022/08/08 10:23:12;;;;;;;2.97;1.10;;;23.30;98.70;;;;;;5053598;28;20072;-59
2022/08/08 10:25:41;;;;;;;2.33;1.08;;;23.30;98.60;;;;;;5038097;28;20037;-58
2022/08/08 10:28:15;;;;;;;1.60;1.00;;;23.30;98.30;;;;;;5033569;28;20695;-59
2022/08/08 10:30:57;;;;;;;2.88;1.00;;;23.50;97.80;;;;;;5033773;28;20037;-59
2022/08/08 10:33:32;;;;;;;2.60;1.05;;;23.80;97.10;;;;;;5021490;28;20072;-60
2022/08/08 10:36:03;;;;;;;2.03;1.10;;;24.00;97.70;;;;;;5037400;28;20041;-60
2022/08/08 10:38:30;;;;;;;3.40;1.02;;;23.80;97.30;;;;;;5053349;28;20041;-59
2022/08/08 10:40:59;;;;;;;3.03;1.00;;;23.80;97.60;;;;;;5039324;28;20037;-60
2022/08/08 10:43:49;;;;;;;1.02;0.80;;;24.10;97.40;;;;;;5053206;28;20060;-58
2022/08/08 10:46:30;;;;;;;3.72;0.90;;;24.10;97.50;;;;;;5013505;28;20065;-59
2022/08/08 10:48:57;;;;;;;1.38;0.90;;;24.30;97.10;;;;;;5039297;28;20105;-59
2022/08/08 10:51:38;;;;;;;2.13;1.08;;;24.50;97.30;;;;;;5040235;28;20083;-60
2022/08/08 10:54:04;;;;;;;2.25;1.08;;;24.70;96.90;;;;;;5051030;28;20116;-58
2022/08/08 10:56:34;;;;;;;2.33;1.20;;;24.70;96.70;;;;;;5033264;28;20029;-59
2022/08/08 10:59:00;;;;;;;2.90;1.05;;;24.60;96.50;;;;;;5046302;28;20076;-58
2022/08/08 11:01:30;;;;;;;2.38;1.30;;;24.70;96.50;;;;;;5038760;28;20087;-59
2022/08/08 11:03:59;;;;;;;3.25;1.10;;;24.90;96.60;;;;;;5040728;28;20052;-58
2022/08/08 11:06:35;;;;;;;2.67;1.00;;;25.00;96.50;;;;;;5049981;28;20058;-59
2022/08/08 11:09:10;;;;;;;3.67;1.00;;;25.20;96.40;;;;;;5052532;28;20335;-58
2022/08/08 11:11:44;;;;;;;4.25;1.10;;;25.10;96.60;;;;;;5038271;28;20418;-58
2022/08/08 11:14:12;;;;;;;4.30;1.10;;;24.80;96.60;;;;;;5039538;28;20090;-60
2022/08/08 11:16:43;;;;;;;1.42;0.90;;;24.60;96.80;;;;;;5036641;28;20167;-58
2022/08/08 11:19:10;;;;;;;4.85;1.23;;;24.40;97.00;;;;;;5052836;28;20040;-58
2022/08/08 11:21:40;;;;;;;1.83;0.82;;;24.40;97.20;;;;;;5052400;28;20037;-58
2022/08/08 11:24:08;;;;;;;4.03;1.33;;;24.40;96.90;;;;;;5046032;28;20322;-58
2022/08/08 11:26:37;;;;;;;2.40;0.80;;;24.80;96.40;;;;;;5032695;28;20037;-58
2022/08/08 11:29:04;;;;;;;2.47;0.90;;;25.10;96.10;;;;;;5032616;28;20046;-58
2022/08/08 11:31:40;;;;;;;2.38;1.23;;;25.20;95.80;;;;;;5043147;28;20048;-58
2022/08/08 11:34:07;;;;;;;2.85;1.10;;;25.00;95.80;;;;;;5033315;28;20107;-59
2022/08/08 11:36:36;;;;;;;1.23;1.10;;;24.90;96.20;;;;;;5022678;28;20045;-59
2022/08/08 11:39:02;;;;;;;2.72;1.05;;;24.80;96.30;;;;;;5048636;28;20470;-58
2022/08/08 11:41:28;;;;;;;2.90;0.95;;;24.90;96.60;;;;;;5052243;28;20445;-59
2022/08/08 11:43:54;;;;;;;1.75;1.17;;;24.60;97.20;;;;;;5037427;28;20127;-59
2022/08/08 11:46:25;;;;;;;1.85;0.90;;;24.40;97.40;;;;;;5021210;28;20106;-58
2022/08/08 11:48:51;;;;;;;1.55;1.10;;;24.40;97.40;;;;;;5051808;28;20041;-58
2022/08/08 11:51:20;;;;;;;1.98;1.08;;;24.30;97.60;;;;;;5032535;28;20045;-59
2022/08/08 11:53:46;;;;;;;6.90;1.20;;;24.00;97.80;;;;;;5044083;28;20049;-59
2022/08/08 11:56:21;;;;;;;3.50;1.20;;;24.10;98.00;;;;;;5024410;28;20036;-58
2022/08/08 11:58:47;;;;;;;4.25;1.10;;;24.10;97.80;;;;;;5034357;28;20048;-59
2022/08/08 12:01:13;;;;;;;2.25;1.13;;;24.00;97.70;;;;;;5048539;28;20348;-59
2022/08/08 12:03:47;;;;;;;2.38;1.02;;;24.00;97.40;;;;;;5041192;28;20029;-59
2022/08/08 12:06:14;;;;;;;3.90;1.30;;;24.40;97.50;;;;;;5046305;28;20412;-58
2022/08/08 12:08:40;;;;;;;1.85;0.90;;;24.60;97.50;;;;;;5031809;28;20454;-59
2022/08/08 12:11:24;;;;;;;3.65;1.20;;;25.00;97.10;;;;;;5031614;28;20072;-58
2022/08/08 12:13:50;;;;;;;4.25;1.40;;;25.00;97.00;;;;;;5031589;28;20127;-59
2022/08/08 12:16:18;;;;;;;2.17;1.02;;;25.10;96.40;;;;;;5030351;28;20104;-60
2022/08/08 12:18:46;;;;;;;2.63;0.98;;;24.70;96.40;;;;;;5031701;28;20366;-59
2022/08/08 12:21:29;;;;;;;3.25;1.23;;;24.60;96.50;;;;;;5031682;28;20187;-59
2022/08/08 12:24:05;;;;;;;1.90;0.80;;;24.50;96.90;;;;;;5023871;28;20037;-59
2022/08/08 12:26:38;;;;;;;2.72;1.10;;;24.60;96.30;;;;;;5023520;28;20160;-58
2022/08/08 12:29:19;;;;;;;3.20;1.35;;;24.70;96.70;;;;;;5031589;28;20045;-58
2022/08/08 12:31:45;;;;;;;2.47;1.10;;;25.10;96.10;;;;;;5031701;28;20184;-59
2022/08/08 12:34:11;;;;;;;2.15;1.10;;;25.30;96.00;;;;;;5030010;28;20371;-59
2022/08/08 12:36:41;;;;;;;1.88;0.70;;;25.10;95.90;;;;;;5042517;28;20033;-59
2022/08/08 12:39:08;;;;;;;4.00;1.30;;;25.10;95.70;;;;;;5047967;28;20045;-58
2022/08/08 12:41:35;;;;;;;1.70;0.90;;;25.20;95.60;;;;;;5030479;28;20041;-59
2022/08/08 12:44:06;;;;;;;2.50;1.08;;;25.40;95.60;;;;;;5018454;28;20121;-59
2022/08/08 12:46:31;;;;;;;2.30;0.95;;;25.60;95.60;;;;;;5039094;28;20714;-59
2022/08/08 12:49:00;;;;;;;1.58;1.00;;;25.50;95.60;;;;;;5037052;28;20048;-59
2022/08/08 12:51:26;;;;;;;2.15;0.90;;;25.40;95.60;;;;;;5044606;28;20044;-59
2022/08/08 12:53:59;;;;;;;2.20;1.08;;;25.50;95.70;;;;;;5030894;28;20060;-59
2022/08/08 12:56:36;;;;;;;2.03;0.90;;;25.30;95.70;;;;;;5012907;28;20041;-59
2022/08/08 12:59:14;;;;;;;1.65;0.95;;;25.40;95.60;;;;;;5031088;28;20533;-59
2022/08/08 13:01:41;;;;;;;1.85;0.90;;;25.40;95.20;;;;;;5025798;28;20037;-59
2022/08/08 13:04:14;;;;;;;5.10;1.20;;;25.60;95.30;;;;;;5037705;28;20033;-59
2022/08/08 13:06:51;;;;;;;2.22;1.20;;;25.90;95.30;;;;;;5017516;28;20121;-59
2022/08/08 13:09:28;;;;;;;0.93;0.80;;;25.80;95.00;;;;;;5044813;28;20060;-59
2022/08/08 13:11:53;;;;;;;2.30;1.00;;;25.90;94.80;;;;;;5026303;28;20034;-59
2022/08/08 13:14:19;;;;;;;4.57;1.20;;;25.90;95.10;;;;;;5012245;28;20045;-60
2022/08/08 13:16:47;;;;;;;2.13;1.10;;;26.10;95.00;;;;;;5049838;28;20518;-59
2022/08/08 13:19:13;;;;;;;1.20;0.98;;;26.10;94.70;;;;;;5039400;28;20052;-59
2022/08/08 13:21:44;;;;;;;2.05;1.10;;;25.80;95.10;;;;;;5034367;28;20033;-58
2022/08/08 13:24:10;;;;;;;3.50;1.30;;;25.70;95.20;;;;;;5044982;28;20052;-59
2022/08/08 13:26:36;;;;;;;2.88;1.10;;;25.50;95.50;;;;;;5031228;28;20038;-61